sensor_id;sensor_type;location;lat;lon;timestamp;P1;durP1;ratioP1;P2;durP2;ratioP2
54464;SDS011;40374;49.480;20.016;2022-12-07T00:01:34;5.05;;;2.63;;
54464;SDS011;40374;49.480;20.016;2022-12-07T00:04:05;2.75;;;2.05;;
54464;SDS011;40374;49.480;20.016;2022-12-07T00:06:37;5.07;;;3.03;;
54464;SDS011;40374;49.480;20.016;2022-12-07T00:09:09;4.70;;;2.50;;
54464;SDS011;40374;49.480;20.016;2022-12-07T00:11:38;3.17;;;1.88;;
54464;SDS011;40374;49.480;20.016;2022-12-07T00:14:06;1.90;;;1.38;;
54464;SDS011;40374;49.480;20.016;2022-12-07T00:16:37;4.00;;;2.13;;
54464;SDS011;40374;49.480;20.016;2022-12-07T00:19:04;3.20;;;1.98;;
54464;SDS011;40374;49.480;20.016;2022-12-07T00:21:33;2.92;;;1.98;;
54464;SDS011;40374;49.480;20.016;2022-12-07T00:24:02;3.25;;;1.60;;
54464;SDS011;40374;49.480;20.016;2022-12-07T00:26:33;3.13;;;2.38;;
54464;SDS011;40374;49.480;20.016;2022-12-07T00:29:06;2.70;;;1.92;;
54464;SDS011;40374;49.480;20.016;2022-12-07T00:31:35;3.33;;;2.00;;
54464;SDS011;40374;49.480;20.016;2022-12-07T00:34:16;2.72;;;2.00;;
54464;SDS011;40374;49.480;20.016;2022-12-07T00:36:46;3.38;;;1.77;;
54464;SDS011;40374;49.480;20.016;2022-12-07T00:39:13;2.17;;;1.45;;
54464;SDS011;40374;49.480;20.016;2022-12-07T00:41:41;2.42;;;1.80;;
54464;SDS011;40374;49.480;20.016;2022-12-07T00:44:08;4.03;;;2.22;;
54464;SDS011;40374;49.480;20.016;2022-12-07T00:46:36;3.22;;;2.03;;
54464;SDS011;40374;49.480;20.016;2022-12-07T00:49:03;2.45;;;1.75;;
54464;SDS011;40374;49.480;20.016;2022-12-07T00:51:31;2.55;;;1.60;;
54464;SDS011;40374;49.480;20.016;2022-12-07T00:53:58;2.65;;;1.48;;
54464;SDS011;40374;49.480;20.016;2022-12-07T00:56:27;4.05;;;1.90;;
54464;SDS011;40374;49.480;20.016;2022-12-07T00:58:59;2.67;;;1.70;;
54464;SDS011;40374;49.480;20.016;2022-12-07T01:01:29;2.03;;;1.45;;
54464;SDS011;40374;49.480;20.016;2022-12-07T01:03:58;1.90;;;1.55;;
54464;SDS011;40374;49.480;20.016;2022-12-07T01:06:28;1.90;;;1.23;;
54464;SDS011;40374;49.480;20.016;2022-12-07T01:08:56;1.67;;;1.33;;
54464;SDS011;40374;49.480;20.016;2022-12-07T01:11:25;1.33;;;0.98;;
54464;SDS011;40374;49.480;20.016;2022-12-07T01:13:54;1.50;;;0.82;;
54464;SDS011;40374;49.480;20.016;2022-12-07T01:16:23;1.65;;;0.90;;
54464;SDS011;40374;49.480;20.016;2022-12-07T01:18:53;2.10;;;1.27;;
54464;SDS011;40374;49.480;20.016;2022-12-07T01:21:26;1.60;;;1.30;;
54464;SDS011;40374;49.480;20.016;2022-12-07T01:23:56;2.45;;;1.77;;
54464;SDS011;40374;49.480;20.016;2022-12-07T01:26:24;2.03;;;1.42;;
54464;SDS011;40374;49.480;20.016;2022-12-07T01:28:52;1.48;;;1.30;;
54464;SDS011;40374;49.480;20.016;2022-12-07T01:31:23;1.45;;;1.30;;
54464;SDS011;40374;49.480;20.016;2022-12-07T01:33:53;2.67;;;1.10;;
54464;SDS011;40374;49.480;20.016;2022-12-07T01:36:23;2.88;;;1.50;;
54464;SDS011;40374;49.480;20.016;2022-12-07T01:39:08;1.95;;;1.40;;
54464;SDS011;40374;49.480;20.016;2022-12-07T01:41:38;2.28;;;1.50;;
54464;SDS011;40374;49.480;20.016;2022-12-07T01:44:09;3.20;;;1.90;;
54464;SDS011;40374;49.480;20.016;2022-12-07T01:46:54;2.17;;;1.98;;
54464;SDS011;40374;49.480;20.016;2022-12-07T01:54:54;1.85;;;1.42;;
54464;SDS011;40374;49.480;20.016;2022-12-07T01:57:26;2.63;;;1.50;;
54464;SDS011;40374;49.480;20.016;2022-12-07T01:59:54;4.15;;;2.15;;
54464;SDS011;40374;49.480;20.016;2022-12-07T02:02:25;2.10;;;1.50;;
54464;SDS011;40374;49.480;20.016;2022-12-07T02:04:57;1.40;;;1.27;;
54464;SDS011;40374;49.480;20.016;2022-12-07T02:07:27;1.00;;;1.00;;
54464;SDS011;40374;49.480;20.016;2022-12-07T02:09:55;1.38;;;1.27;;
54464;SDS011;40374;49.480;20.016;2022-12-07T02:12:23;1.30;;;1.20;;
54464;SDS011;40374;49.480;20.016;2022-12-07T02:14:51;2.72;;;2.03;;
54464;SDS011;40374;49.480;20.016;2022-12-07T02:17:25;1.27;;;1.13;;
54464;SDS011;40374;49.480;20.016;2022-12-07T02:29:17;2.63;;;1.45;;
54464;SDS011;40374;49.480;20.016;2022-12-07T02:31:55;3.78;;;3.08;;
54464;SDS011;40374;49.480;20.016;2022-12-07T02:43:10;1.73;;;1.30;;
54464;SDS011;40374;49.480;20.016;2022-12-07T02:45:43;2.28;;;1.45;;
54464;SDS011;40374;49.480;20.016;2022-12-07T02:48:13;2.17;;;1.30;;
54464;SDS011;40374;49.480;20.016;2022-12-07T02:50:50;1.65;;;1.33;;
54464;SDS011;40374;49.480;20.016;2022-12-07T02:56:04;1.27;;;1.15;;
54464;SDS011;40374;49.480;20.016;2022-12-07T03:07:23;1.60;;;1.20;;
54464;SDS011;40374;49.480;20.016;2022-12-07T03:10:03;1.33;;;1.13;;
54464;SDS011;40374;49.480;20.016;2022-12-07T03:12:52;1.63;;;1.50;;
54464;SDS011;40374;49.480;20.016;2022-12-07T03:15:40;1.40;;;1.30;;
54464;SDS011;40374;49.480;20.016;2022-12-07T03:18:14;1.98;;;1.55;;
54464;SDS011;40374;49.480;20.016;2022-12-07T03:20:45;3.15;;;1.95;;
54464;SDS011;40374;49.480;20.016;2022-12-07T03:23:15;3.42;;;2.08;;
54464;SDS011;40374;49.480;20.016;2022-12-07T03:25:47;4.30;;;2.55;;
54464;SDS011;40374;49.480;20.016;2022-12-07T03:28:28;4.53;;;2.65;;
54464;SDS011;40374;49.480;20.016;2022-12-07T03:33:39;5.03;;;3.30;;
54464;SDS011;40374;49.480;20.016;2022-12-07T03:36:11;3.13;;;2.00;;
54464;SDS011;40374;49.480;20.016;2022-12-07T03:38:53;2.63;;;2.15;;
54464;SDS011;40374;49.480;20.016;2022-12-07T03:41:28;2.10;;;1.92;;
54464;SDS011;40374;49.480;20.016;2022-12-07T03:43:59;5.50;;;2.88;;
54464;SDS011;40374;49.480;20.016;2022-12-07T03:49:08;2.70;;;2.17;;
54464;SDS011;40374;49.480;20.016;2022-12-07T03:52:00;3.30;;;2.43;;
54464;SDS011;40374;49.480;20.016;2022-12-07T03:57:21;2.70;;;2.42;;
54464;SDS011;40374;49.480;20.016;2022-12-07T03:59:51;2.33;;;2.05;;
54464;SDS011;40374;49.480;20.016;2022-12-07T04:02:21;2.67;;;2.47;;
54464;SDS011;40374;49.480;20.016;2022-12-07T04:04:50;2.63;;;1.92;;
54464;SDS011;40374;49.480;20.016;2022-12-07T04:07:17;3.17;;;2.67;;
54464;SDS011;40374;49.480;20.016;2022-12-07T04:09:45;4.85;;;3.03;;
54464;SDS011;40374;49.480;20.016;2022-12-07T04:12:12;5.53;;;3.85;;
54464;SDS011;40374;49.480;20.016;2022-12-07T04:14:40;5.05;;;4.00;;
54464;SDS011;40374;49.480;20.016;2022-12-07T04:17:08;7.15;;;5.10;;
54464;SDS011;40374;49.480;20.016;2022-12-07T04:19:35;10.07;;;6.05;;
54464;SDS011;40374;49.480;20.016;2022-12-07T04:22:03;7.82;;;4.72;;
54464;SDS011;40374;49.480;20.016;2022-12-07T04:24:31;8.57;;;5.40;;
54464;SDS011;40374;49.480;20.016;2022-12-07T04:26:59;7.82;;;4.75;;
54464;SDS011;40374;49.480;20.016;2022-12-07T04:29:27;7.45;;;4.57;;
54464;SDS011;40374;49.480;20.016;2022-12-07T04:31:54;8.98;;;5.07;;
54464;SDS011;40374;49.480;20.016;2022-12-07T04:34:22;6.68;;;3.92;;
54464;SDS011;40374;49.480;20.016;2022-12-07T04:36:49;7.45;;;4.53;;
54464;SDS011;40374;49.480;20.016;2022-12-07T04:39:19;5.85;;;4.15;;
54464;SDS011;40374;49.480;20.016;2022-12-07T04:41:50;6.07;;;4.57;;
54464;SDS011;40374;49.480;20.016;2022-12-07T04:44:18;11.85;;;7.40;;
54464;SDS011;40374;49.480;20.016;2022-12-07T04:46:48;6.38;;;5.00;;
54464;SDS011;40374;49.480;20.016;2022-12-07T04:49:16;5.00;;;3.28;;
54464;SDS011;40374;49.480;20.016;2022-12-07T04:51:44;4.88;;;3.45;;
54464;SDS011;40374;49.480;20.016;2022-12-07T04:54:12;3.97;;;3.58;;
54464;SDS011;40374;49.480;20.016;2022-12-07T04:56:40;4.70;;;3.20;;
54464;SDS011;40374;49.480;20.016;2022-12-07T04:59:08;5.72;;;3.30;;
54464;SDS011;40374;49.480;20.016;2022-12-07T05:01:36;6.10;;;3.17;;
54464;SDS011;40374;49.480;20.016;2022-12-07T05:04:04;8.15;;;3.53;;
54464;SDS011;40374;49.480;20.016;2022-12-07T05:06:32;44.22;;;18.83;;
54464;SDS011;40374;49.480;20.016;2022-12-07T05:08:59;13.57;;;5.47;;
54464;SDS011;40374;49.480;20.016;2022-12-07T05:11:28;18.10;;;6.28;;
54464;SDS011;40374;49.480;20.016;2022-12-07T05:16:32;5.35;;;2.80;;
54464;SDS011;40374;49.480;20.016;2022-12-07T05:19:00;7.88;;;4.05;;
54464;SDS011;40374;49.480;20.016;2022-12-07T05:21:27;6.03;;;3.40;;
54464;SDS011;40374;49.480;20.016;2022-12-07T05:23:54;5.10;;;3.40;;
54464;SDS011;40374;49.480;20.016;2022-12-07T05:26:22;6.13;;;4.10;;
54464;SDS011;40374;49.480;20.016;2022-12-07T05:28:50;11.38;;;6.32;;
54464;SDS011;40374;49.480;20.016;2022-12-07T05:31:19;17.67;;;9.32;;
54464;SDS011;40374;49.480;20.016;2022-12-07T05:33:47;10.68;;;5.07;;
54464;SDS011;40374;49.480;20.016;2022-12-07T05:36:14;9.68;;;6.32;;
54464;SDS011;40374;49.480;20.016;2022-12-07T05:38:42;12.15;;;6.32;;
54464;SDS011;40374;49.480;20.016;2022-12-07T05:41:09;10.82;;;6.78;;
54464;SDS011;40374;49.480;20.016;2022-12-07T05:44:01;12.55;;;6.15;;
54464;SDS011;40374;49.480;20.016;2022-12-07T05:46:28;15.88;;;6.70;;
54464;SDS011;40374;49.480;20.016;2022-12-07T05:48:55;14.00;;;6.53;;
54464;SDS011;40374;49.480;20.016;2022-12-07T05:51:22;10.40;;;4.45;;
54464;SDS011;40374;49.480;20.016;2022-12-07T05:53:50;18.75;;;7.38;;
54464;SDS011;40374;49.480;20.016;2022-12-07T05:56:17;26.77;;;11.88;;
54464;SDS011;40374;49.480;20.016;2022-12-07T05:58:45;9.45;;;5.28;;
54464;SDS011;40374;49.480;20.016;2022-12-07T06:01:31;15.23;;;6.53;;
54464;SDS011;40374;49.480;20.016;2022-12-07T06:03:58;10.20;;;5.70;;
54464;SDS011;40374;49.480;20.016;2022-12-07T06:06:25;15.65;;;8.90;;
54464;SDS011;40374;49.480;20.016;2022-12-07T06:08:53;8.70;;;5.00;;
54464;SDS011;40374;49.480;20.016;2022-12-07T06:11:20;10.23;;;4.75;;
54464;SDS011;40374;49.480;20.016;2022-12-07T06:14:06;17.27;;;7.10;;
54464;SDS011;40374;49.480;20.016;2022-12-07T06:16:33;21.48;;;7.55;;
54464;SDS011;40374;49.480;20.016;2022-12-07T06:19:01;16.20;;;5.97;;
54464;SDS011;40374;49.480;20.016;2022-12-07T06:21:28;8.82;;;3.38;;
54464;SDS011;40374;49.480;20.016;2022-12-07T06:23:56;3.85;;;2.38;;
54464;SDS011;40374;49.480;20.016;2022-12-07T06:26:23;6.15;;;2.45;;
54464;SDS011;40374;49.480;20.016;2022-12-07T06:28:51;6.05;;;2.63;;
54464;SDS011;40374;49.480;20.016;2022-12-07T06:31:18;15.48;;;6.00;;
54464;SDS011;40374;49.480;20.016;2022-12-07T06:33:46;8.52;;;4.70;;
54464;SDS011;40374;49.480;20.016;2022-12-07T06:36:13;16.85;;;7.63;;
54464;SDS011;40374;49.480;20.016;2022-12-07T06:38:41;11.73;;;5.72;;
54464;SDS011;40374;49.480;20.016;2022-12-07T06:41:08;10.52;;;4.57;;
54464;SDS011;40374;49.480;20.016;2022-12-07T06:43:35;10.25;;;5.32;;
54464;SDS011;40374;49.480;20.016;2022-12-07T06:46:02;14.90;;;6.55;;
54464;SDS011;40374;49.480;20.016;2022-12-07T06:48:30;20.38;;;6.60;;
54464;SDS011;40374;49.480;20.016;2022-12-07T06:50:58;16.77;;;7.22;;
54464;SDS011;40374;49.480;20.016;2022-12-07T06:53:26;7.20;;;4.00;;
54464;SDS011;40374;49.480;20.016;2022-12-07T06:55:53;8.25;;;4.65;;
54464;SDS011;40374;49.480;20.016;2022-12-07T06:58:20;9.82;;;3.90;;
54464;SDS011;40374;49.480;20.016;2022-12-07T07:00:48;13.20;;;6.32;;
54464;SDS011;40374;49.480;20.016;2022-12-07T07:03:17;17.50;;;7.22;;
54464;SDS011;40374;49.480;20.016;2022-12-07T07:05:44;12.82;;;3.85;;
54464;SDS011;40374;49.480;20.016;2022-12-07T07:08:12;4.28;;;3.00;;
54464;SDS011;40374;49.480;20.016;2022-12-07T07:10:49;4.90;;;3.28;;
54464;SDS011;40374;49.480;20.016;2022-12-07T07:13:17;5.90;;;3.17;;
54464;SDS011;40374;49.480;20.016;2022-12-07T07:15:44;6.45;;;3.28;;
54464;SDS011;40374;49.480;20.016;2022-12-07T07:18:12;5.20;;;3.35;;
54464;SDS011;40374;49.480;20.016;2022-12-07T07:20:39;4.88;;;2.70;;
54464;SDS011;40374;49.480;20.016;2022-12-07T07:23:07;4.50;;;2.80;;
54464;SDS011;40374;49.480;20.016;2022-12-07T07:25:34;6.28;;;3.33;;
54464;SDS011;40374;49.480;20.016;2022-12-07T07:28:02;5.25;;;3.38;;
54464;SDS011;40374;49.480;20.016;2022-12-07T07:30:29;9.55;;;3.55;;
54464;SDS011;40374;49.480;20.016;2022-12-07T07:32:57;9.90;;;4.35;;
54464;SDS011;40374;49.480;20.016;2022-12-07T07:35:26;6.90;;;3.33;;
54464;SDS011;40374;49.480;20.016;2022-12-07T07:37:54;7.72;;;3.75;;
54464;SDS011;40374;49.480;20.016;2022-12-07T07:40:22;5.28;;;3.40;;
54464;SDS011;40374;49.480;20.016;2022-12-07T07:42:51;6.65;;;4.57;;
54464;SDS011;40374;49.480;20.016;2022-12-07T07:45:19;7.05;;;4.22;;
54464;SDS011;40374;49.480;20.016;2022-12-07T07:47:48;6.25;;;4.22;;
54464;SDS011;40374;49.480;20.016;2022-12-07T07:50:16;5.53;;;3.60;;
54464;SDS011;40374;49.480;20.016;2022-12-07T07:52:44;5.22;;;3.38;;
54464;SDS011;40374;49.480;20.016;2022-12-07T07:55:12;6.35;;;3.67;;
54464;SDS011;40374;49.480;20.016;2022-12-07T07:57:40;4.22;;;2.72;;
54464;SDS011;40374;49.480;20.016;2022-12-07T08:00:09;5.53;;;2.85;;
54464;SDS011;40374;49.480;20.016;2022-12-07T08:02:38;4.03;;;2.50;;
54464;SDS011;40374;49.480;20.016;2022-12-07T08:05:06;8.10;;;4.32;;
54464;SDS011;40374;49.480;20.016;2022-12-07T08:07:34;8.35;;;3.60;;
54464;SDS011;40374;49.480;20.016;2022-12-07T08:10:02;5.25;;;3.22;;
54464;SDS011;40374;49.480;20.016;2022-12-07T08:12:30;8.25;;;3.28;;
54464;SDS011;40374;49.480;20.016;2022-12-07T08:14:58;8.10;;;4.78;;
54464;SDS011;40374;49.480;20.016;2022-12-07T08:17:25;17.85;;;8.88;;
54464;SDS011;40374;49.480;20.016;2022-12-07T08:19:53;6.57;;;4.20;;
54464;SDS011;40374;49.480;20.016;2022-12-07T08:22:20;9.23;;;4.95;;
54464;SDS011;40374;49.480;20.016;2022-12-07T08:24:47;8.65;;;3.67;;
54464;SDS011;40374;49.480;20.016;2022-12-07T08:27:15;7.97;;;4.30;;
54464;SDS011;40374;49.480;20.016;2022-12-07T08:29:42;6.85;;;4.28;;
54464;SDS011;40374;49.480;20.016;2022-12-07T08:32:10;6.63;;;3.67;;
54464;SDS011;40374;49.480;20.016;2022-12-07T08:34:37;7.43;;;4.18;;
54464;SDS011;40374;49.480;20.016;2022-12-07T08:37:05;4.80;;;3.15;;
54464;SDS011;40374;49.480;20.016;2022-12-07T08:39:32;8.20;;;4.00;;
54464;SDS011;40374;49.480;20.016;2022-12-07T08:41:59;8.85;;;3.38;;
54464;SDS011;40374;49.480;20.016;2022-12-07T08:44:27;7.35;;;3.20;;
54464;SDS011;40374;49.480;20.016;2022-12-07T08:46:56;8.90;;;3.03;;
54464;SDS011;40374;49.480;20.016;2022-12-07T08:49:32;13.45;;;6.05;;
54464;SDS011;40374;49.480;20.016;2022-12-07T08:52:05;10.43;;;4.68;;
54464;SDS011;40374;49.480;20.016;2022-12-07T08:54:33;7.97;;;3.63;;
54464;SDS011;40374;49.480;20.016;2022-12-07T08:57:04;6.78;;;2.85;;
54464;SDS011;40374;49.480;20.016;2022-12-07T08:59:33;5.03;;;2.85;;
54464;SDS011;40374;49.480;20.016;2022-12-07T09:02:03;6.97;;;2.47;;
54464;SDS011;40374;49.480;20.016;2022-12-07T09:04:31;7.18;;;3.38;;
54464;SDS011;40374;49.480;20.016;2022-12-07T09:06:59;7.45;;;3.20;;
54464;SDS011;40374;49.480;20.016;2022-12-07T09:09:26;10.70;;;4.63;;
54464;SDS011;40374;49.480;20.016;2022-12-07T09:11:54;10.48;;;5.05;;
54464;SDS011;40374;49.480;20.016;2022-12-07T09:14:22;34.15;;;11.27;;
